YBBA weather

Barraba Airport
New South Wales, Australia

Public forecast

Using degrees Celsius for public forecast. Weather courtesy of forecast.io.

METAR (pilot weather report)

Closest report is Narrabri Airport, 40.2 nm (74.5 km) W. Retrieved 2019/04/26 15:00 UTC (29 minutes ago):

YNBR 261500Z AUTO 16011KT 9999 // NCD 18/05 Q1019

TAF (pilot weather forecast)

Closest forecast is Tamworth Airport, 44.0 nm (81.4 km) SSE. Retrieved 2019/04/26 12:36 UTC (3 hours ago):

TAF YSTW 261100Z 2612/2706 20010KT CAVOK FM261600 14007KT CAVOK FM270300 20007KT CAVOK